Time;durP1;ratioP1;P1;durP2;ratioP2;P2;SDS_P1;SDS_P2;PMS_P1;PMS_P2;Temp;Humidity;BMP_temperature;BMP_pressure;BME280_temperature;BME280_humidity;BME280_pressure;Samples;Min_cycle;Max_cycle;Signal;HPM_P1;HPM_P2
2022/02/10 00:07:59;;;;;;;;;;;10.10;99.90;;;8.74;100.00;101089.81;5047877;28;19928;-82
2022/02/10 00:16:19;;;;;;;;;;;10.10;99.90;;;8.70;100.00;101086.53;5089596;28;19920;-82
2022/02/10 00:21:34;;;;;;;;;;;10.10;99.90;;;8.69;100.00;101076.69;5065521;28;19936;-83
2022/02/10 00:35:08;;;;;;;;;;;10.00;99.90;;;8.60;100.00;101064.94;5066163;28;19935;-84
2022/02/10 00:37:49;;;;;;;;;;;10.00;99.90;;;8.55;100.00;101066.44;5066362;28;19929;-84
2022/02/10 00:40:20;;;;;;;;;;;10.00;99.90;;;8.48;100.00;101062.63;5065823;28;19968;-84
2022/02/10 00:42:47;;;;;;;;;;;10.00;99.90;;;8.45;100.00;101055.63;5066021;28;20332;-84
2022/02/10 00:45:15;;;;;;;;;;;9.90;99.90;;;8.46;100.00;101054.66;5065789;28;19929;-84
2022/02/10 00:47:54;;;;;;;;;;;9.90;99.90;;;8.45;100.00;101046.66;5081272;28;20275;-84
2022/02/10 00:50:23;;;;;;;;;;;9.90;99.90;;;8.46;100.00;101051.09;5069037;28;20015;-84
2022/02/10 00:52:57;;;;;;;;;;;9.90;99.90;;;8.38;100.00;101041.84;5064126;28;20451;-83
2022/02/10 00:55:28;;;;;;;;;;;9.90;99.90;;;8.37;100.00;101039.28;5065595;28;19928;-84
2022/02/10 00:57:55;;;;;;;;;;;9.80;99.90;;;8.39;100.00;101038.09;5063757;28;20694;-83
2022/02/10 01:02:10;;;;;;;;;;;9.80;99.90;;;8.31;100.00;101032.63;5053503;28;20015;-84
2022/02/10 01:12:17;;;;;;;;;;;9.70;99.90;;;8.18;100.00;101026.75;5076500;28;19928;-83
2022/02/10 01:31:12;;;;;;;;;;;9.50;99.90;;;7.98;100.00;101017.94;5071799;28;20410;-84
2022/02/10 01:33:41;;;;;;;;;;;9.50;99.90;;;7.94;100.00;101017.41;5071490;28;20414;-84
2022/02/10 01:36:12;;;;;;;;;;;9.50;99.90;;;7.99;100.00;101016.94;5055872;28;19929;-84
2022/02/10 01:38:39;;;;;;;;;;;9.50;99.90;;;8.01;100.00;101009.50;5070883;28;19950;-84
2022/02/10 01:41:41;;;;;;;;;;;9.40;99.90;;;8.03;100.00;101002.06;5067924;28;19928;-84
2022/02/10 01:58:07;;;;;;;;;;;9.50;99.90;;;7.98;100.00;100974.59;5071119;28;20863;-83
2022/02/10 02:03:23;;;;;;;;;;;9.50;99.90;;;7.88;100.00;100962.97;5071203;28;19932;-84
2022/02/10 02:05:55;;;;;;;;;;;9.40;99.90;;;7.81;100.00;100957.31;5071221;28;19997;-84
2022/02/10 02:08:25;;;;;;;;;;;9.40;99.90;;;7.78;100.00;100957.63;5084891;28;19928;-84
2022/02/10 02:10:52;;;;;;;;;;;9.40;99.90;;;7.69;100.00;100964.84;5070836;28;19936;-83
2022/02/10 02:13:19;;;;;;;;;;;9.40;99.90;;;7.60;100.00;100957.63;5075616;28;19966;-84
2022/02/10 02:15:46;;;;;;;;;;;9.40;99.90;;;7.61;100.00;100954.75;5069520;28;19928;-84
2022/02/10 02:18:13;;;;;;;;;;;9.30;99.90;;;7.56;100.00;100950.84;5069504;28;19934;-83
2022/02/10 02:20:40;;;;;;;;;;;9.30;99.90;;;7.54;100.00;100944.69;5070543;28;19929;-84
2022/02/10 02:23:08;;;;;;;;;;;9.20;99.90;;;7.54;100.00;100936.56;5056462;28;19932;-83
2022/02/10 02:25:35;;;;;;;;;;;9.20;99.90;;;7.51;100.00;100934.19;5061798;28;19932;-83
2022/02/10 02:28:07;;;;;;;;;;;9.20;99.90;;;7.52;100.00;100930.44;5070800;28;19963;-84
2022/02/10 02:30:39;;;;;;;;;;;9.10;99.90;;;7.57;100.00;100922.72;5081659;28;19994;-84
2022/02/10 03:06:30;;;;;;;;;;;9.30;99.90;;;7.37;100.00;100884.97;5069999;28;19936;-83
2022/02/10 03:09:01;;;;;;;;;;;9.30;99.90;;;7.37;100.00;100878.72;5069174;28;20388;-83
2022/02/10 03:11:29;;;;;;;;;;;9.30;99.90;;;7.47;100.00;100879.47;5085465;28;20395;-83
2022/02/10 03:14:01;;;;;;;;;;;9.30;99.90;;;7.41;100.00;100872.81;5081695;28;20043;-83
2022/02/10 03:16:51;;;;;;;;;;;9.30;99.90;;;7.38;100.00;100875.00;5068736;28;19955;-84
2022/02/10 03:19:31;;;;;;;;;;;9.30;99.90;;;7.48;100.00;100872.19;5069037;28;19935;-83
2022/02/10 03:22:17;;;;;;;;;;;9.20;99.90;;;7.51;100.00;100864.63;5068229;28;19928;-83
2022/02/10 04:01:11;;;;;;;;;;;8.90;99.90;;;7.03;100.00;100815.28;5069139;28;19981;-83
2022/02/10 04:09:50;;;;;;;;;;;8.70;99.90;;;6.91;100.00;100813.81;5065830;28;19929;-83
2022/02/10 04:12:41;;;;;;;;;;;8.80;99.90;;;6.75;100.00;100824.47;5049032;28;19928;-83
2022/02/10 04:15:18;;;;;;;;;;;8.70;99.90;;;6.67;100.00;100830.63;5058825;28;19932;-83
2022/02/10 04:18:13;;;;;;;;;;;8.60;99.90;;;6.56;100.00;100812.75;5085229;22;19952;-89
2022/02/10 04:20:51;;;;;;;;;;;8.60;99.90;;;6.55;100.00;100826.41;5071042;28;20555;-89
2022/02/10 04:23:33;;;;;;;;;;;8.60;99.90;;;6.47;100.00;100819.06;5071755;28;20250;-90
2022/02/10 04:26:13;;;;;;;;;;;8.50;99.90;;;6.47;100.00;100824.47;5068165;28;19936;-90
2022/02/10 04:28:57;;;;;;;;;;;8.50;99.90;;;6.45;100.00;100823.75;5041333;28;20027;-91
2022/02/10 04:37:46;;;;;;;;;;;8.30;99.90;;;6.31;100.00;100811.59;5049503;28;19929;-90
2022/02/10 04:43:20;;;;;;;;;;;8.30;99.90;;;6.25;100.00;100809.50;5030863;28;19929;-91
2022/02/10 04:59:47;;;;;;;;;;;8.20;99.90;;;6.18;100.00;100811.09;5048222;28;19956;-89
2022/02/10 05:16:50;;;;;;;;;;;8.10;99.90;;;6.27;100.00;100810.19;5040704;28;19929;-88
2022/02/10 05:22:30;;;;;;;;;;;8.10;99.90;;;6.10;100.00;100813.69;5041151;28;19929;-86
2022/02/10 05:33:38;;;;;;;;;;;8.30;99.90;;;6.30;100.00;100800.94;5032176;28;20472;-88
2022/02/10 05:36:08;;;;;;;;;;;8.30;99.90;;;6.40;100.00;100794.50;5047924;28;19924;-88
2022/02/10 05:38:39;;;;;;;;;;;8.30;99.90;;;6.43;100.00;100798.72;5051863;28;19936;-90
2022/02/10 05:44:23;;;;;;;;;;;8.30;99.90;;;6.42;100.00;100797.03;5001758;28;20041;-87
2022/02/10 05:47:12;;;;;;;;;;;8.40;99.90;;;6.38;100.00;100801.06;5051362;28;19929;-88
2022/02/10 05:55:51;;;;;;;;;;;8.40;99.90;;;6.41;100.00;100804.28;5051575;28;19929;-86
2022/02/10 05:58:28;;;;;;;;;;;8.40;99.90;;;6.44;100.00;100808.56;5031892;28;19937;-86
2022/02/10 06:53:47;;;;;;;;;;;8.40;99.90;;;6.32;100.00;100804.34;5037720;28;19929;-92
2022/02/10 07:05:18;;;;;;;;;;;8.40;99.90;;;6.47;100.00;100816.34;5044119;28;19950;-91
2022/02/10 07:11:06;;;;;;;;;;;8.60;99.90;;;6.39;100.00;100819.81;5084532;28;19920;-90
2022/02/10 07:17:05;;;;;;;;;;;8.40;99.90;;;6.46;100.00;100828.19;5078313;28;19928;-91
2022/02/10 07:47:32;;;;;;;;;;;8.50;99.90;;;6.37;100.00;100842.59;5035302;28;19935;-89
2022/02/10 07:50:19;;;;;;;;;;;8.50;99.90;;;6.38;100.00;100844.31;5065606;28;19929;-90
2022/02/10 07:53:18;;;;;;;;;;;8.50;99.90;;;6.50;100.00;100848.50;5071815;28;19934;-88
2022/02/10 07:56:08;;;;;;;;;;;8.50;99.90;;;6.56;100.00;100850.59;5085436;28;20027;-89
2022/02/10 07:59:03;;;;;;;;;;;8.50;99.90;;;6.53;100.00;100845.50;5070616;28;19960;-89
2022/02/10 08:56:53;;;;;;;;;;;8.60;99.90;;;6.65;100.00;100863.22;5082083;28;19932;-89
2022/02/10 08:59:53;;;;;;;;;;;8.60;99.90;;;6.61;100.00;100864.53;5073848;28;19928;-89
2022/02/10 09:02:45;;;;;;;;;;;8.60;99.90;;;6.77;100.00;100871.13;5059993;28;20568;-90
2022/02/10 09:05:29;;;;;;;;;;;8.60;99.90;;;6.93;100.00;100871.34;5078524;28;19935;-91
2022/02/10 09:08:21;;;;;;;;;;;8.70;99.90;;;6.93;100.00;100871.34;5078384;28;19928;-90
2022/02/10 09:16:50;;;;;;;;;;;8.70;99.90;;;6.83;100.00;100871.41;5086034;28;19928;-88
2022/02/10 10:01:25;;;;;;;;;;;9.10;99.90;;;7.11;100.00;100898.41;5084497;28;19932;-94
2022/02/10 10:03:59;;;;;;;;;;;9.10;99.90;;;7.12;100.00;100893.84;5072786;28;19924;-94
2022/02/10 10:06:43;;;;;;;;;;;9.10;99.90;;;7.24;100.00;100896.19;5074045;28;19928;-95
2022/02/10 10:09:29;;;;;;;;;;;9.20;99.90;;;7.30;100.00;100905.53;5058528;28;19928;-94
2022/02/10 10:14:53;;;;;;;;;;;9.20;99.90;;;7.22;100.00;100908.19;5076280;28;19935;-93
2022/02/10 10:17:42;;;;;;;;;;;9.20;99.90;;;7.08;100.00;100904.13;5062889;28;19964;-91
2022/02/10 10:22:48;;;;;;;;;;;9.20;99.90;;;7.05;100.00;100921.53;5081916;28;19928;-83
2022/02/10 10:26:02;;;;;;;;;;;9.10;99.90;;;7.07;100.00;100917.81;5083990;28;19936;-84
2022/02/10 10:51:15;;;;;;;;;;;9.00;99.90;;;6.96;100.00;100924.28;5068906;28;19928;-86
2022/02/10 10:53:50;;;;;;;;;;;9.00;99.90;;;6.92;100.00;100920.19;5067000;28;19929;-86
2022/02/10 10:56:23;;;;;;;;;;;9.00;99.90;;;6.92;100.00;100923.72;5079489;28;19928;-87
2022/02/10 10:59:18;;;;;;;;;;;9.00;99.90;;;6.98;100.00;100917.72;5070268;28;20426;-85
2022/02/10 11:38:57;;;;;;;;;;;9.10;99.90;;;7.22;100.00;100913.59;5088682;28;19928;-88
2022/02/10 11:44:38;;;;;;;;;;;9.10;99.90;;;7.32;100.00;100914.34;5059755;28;20103;-87
2022/02/10 12:36:41;;;;;;;;;;;9.20;99.90;;;7.46;100.00;100939.19;5090909;28;19928;-88
2022/02/10 13:23:28;;;;;;;;;;;9.50;99.90;;;7.78;100.00;100935.94;5088993;28;19950;-88
2022/02/10 14:10:45;;;;;;;;;;;9.70;99.90;;;7.97;100.00;100930.34;5089593;28;19935;-87
2022/02/10 14:13:23;;;;;;;;;;;9.70;99.90;;;7.90;100.00;100929.28;5069938;28;19933;-87
2022/02/10 14:18:35;;;;;;;;;;;9.70;99.90;;;7.91;100.00;100925.56;5086116;28;20011;-88
2022/02/10 14:21:08;;;;;;;;;;;9.80;99.90;;;7.99;100.00;100930.19;5088996;28;20455;-87
2022/02/10 14:29:13;;;;;;;;;;;9.70;99.90;;;7.94;100.00;100927.97;5070737;28;19924;-86
2022/02/10 14:31:43;;;;;;;;;;;9.80;99.90;;;7.98;100.00;100929.34;5087550;28;19934;-86
2022/02/10 14:34:15;;;;;;;;;;;9.70;99.90;;;7.89;100.00;100927.56;5089749;28;20711;-85
2022/02/10 14:36:45;;;;;;;;;;;9.70;99.90;;;7.94;100.00;100929.81;5068977;28;19924;-93
2022/02/10 15:47:02;;;;;;;;;;;9.40;99.90;;;7.54;100.00;100963.66;5070220;28;19928;-85
2022/02/10 15:52:28;;;;;;;;;;;9.40;99.90;;;7.55;100.00;100963.50;5092359;28;19932;-85
2022/02/10 15:55:21;;;;;;;;;;;9.40;99.90;;;7.60;100.00;100968.47;5090660;28;20024;-85
2022/02/10 16:12:09;;;;;;;;;;;9.20;99.90;;;7.53;100.00;100975.50;5092318;28;20030;-82
2022/02/10 16:14:51;;;;;;;;;;;9.20;99.90;;;7.55;100.00;100978.91;5088287;28;19928;-81
2022/02/10 16:17:19;;;;;;;;;;;9.20;99.90;;;7.58;100.00;100978.63;5084858;28;20550;-82
2022/02/10 16:19:47;;;;;;;;;;;9.20;99.90;;;7.55;100.00;100974.34;5073515;28;19928;-82
2022/02/10 16:22:24;;;;;;;;;;;9.20;99.90;;;7.54;100.00;100979.91;5089554;28;20424;-82
2022/02/10 16:24:56;;;;;;;;;;;9.20;99.90;;;7.50;100.00;100970.38;5089799;28;19928;-82
2022/02/10 16:27:26;;;;;;;;;;;9.20;99.90;;;7.47;100.00;100981.53;5092255;28;19931;-82
2022/02/10 16:29:59;;;;;;;;;;;9.20;99.90;;;7.50;100.00;100976.69;5091411;28;20026;-82
2022/02/10 16:32:27;;;;;;;;;;;9.10;99.90;;;7.50;100.00;100975.81;5087492;28;19924;-82
2022/02/10 16:34:55;;;;;;;;;;;9.10;99.90;;;7.44;100.00;100974.56;5088375;28;19928;-82
2022/02/10 16:37:24;;;;;;;;;;;9.10;99.90;;;7.41;100.00;100956.78;5089589;28;19928;-82
2022/02/10 16:39:52;;;;;;;;;;;9.10;99.90;;;7.47;100.00;100965.28;5091348;28;19966;-82
2022/02/10 16:42:19;;;;;;;;;;;9.10;99.90;;;7.41;100.00;100959.47;5070849;28;19928;-81
2022/02/10 16:44:47;;;;;;;;;;;9.10;99.90;;;7.38;100.00;100961.63;5089367;28;19932;-82
2022/02/10 16:47:15;;;;;;;;;;;9.10;99.90;;;7.22;100.00;100956.91;5081360;28;20396;-82
2022/02/10 16:49:46;;;;;;;;;;;9.10;99.90;;;7.07;100.00;100961.97;5086981;28;20378;-82
2022/02/10 16:52:19;;;;;;;;;;;9.10;99.90;;;7.03;100.00;100955.16;5072804;28;19947;-82
2022/02/10 16:54:51;;;;;;;;;;;9.00;99.90;;;7.01;100.00;100955.31;5073185;28;20382;-82
2022/02/10 16:57:31;;;;;;;;;;;9.00;99.90;;;7.04;100.00;100955.00;5089359;28;19997;-82
2022/02/10 17:00:09;;;;;;;;;;;9.00;99.90;;;7.10;100.00;100955.38;5061956;28;20299;-82
2022/02/10 17:05:37;;;;;;;;;;;8.90;99.90;;;7.06;100.00;100957.53;5057940;28;19928;-81
2022/02/10 17:14:09;;;;;;;;;;;8.80;99.90;;;6.97;100.00;100962.03;5083573;28;19928;-81
2022/02/10 17:19:47;;;;;;;;;;;8.70;99.90;;;6.87;100.00;100969.31;5077149;28;19932;-82
2022/02/10 17:25:33;;;;;;;;;;;8.70;99.90;;;6.68;100.00;100972.94;5080792;28;20295;-83
2022/02/10 17:28:16;;;;;;;;;;;8.70;99.90;;;6.59;100.00;100972.00;5061966;28;19989;-81
2022/02/10 17:31:23;;;;;;;;;;;8.70;99.90;;;6.62;100.00;100970.84;5071902;28;19935;-81
2022/02/10 17:34:13;;;;;;;;;;;8.60;99.90;;;6.55;100.00;100965.19;5071582;28;20303;-81
2022/02/10 17:36:50;;;;;;;;;;;8.60;99.90;;;6.59;100.00;100977.41;5088134;28;20451;-81
2022/02/10 17:42:20;;;;;;;;;;;8.60;99.90;;;6.51;100.00;100980.00;5087386;28;19939;-81
2022/02/10 17:45:10;;;;;;;;;;;8.60;99.90;;;6.43;100.00;100978.00;5088879;28;19988;-81
2022/02/10 17:53:11;;;;;;;;;;;8.60;99.90;;;6.47;100.00;100983.97;5063516;28;19933;-86
2022/02/10 17:55:38;;;;;;;;;;;8.50;99.90;;;6.37;100.00;100989.41;5045744;28;19951;-86
2022/02/10 17:58:06;;;;;;;;;;;8.50;99.90;;;6.37;100.00;100986.72;5062962;28;20061;-86
2022/02/10 18:00:34;;;;;;;;;;;8.50;99.90;;;6.51;100.00;100990.81;5062503;28;20398;-86
2022/02/10 18:03:02;;;;;;;;;;;8.50;99.90;;;6.57;100.00;100998.34;5062920;28;19932;-83
2022/02/10 18:06:15;;;;;;;;;;;8.50;99.90;;;6.52;100.00;101006.03;5067184;28;19982;-84
2022/02/10 18:08:36;;;;;;;;;;;8.50;99.90;;;6.44;100.00;101004.06;5066126;28;19929;-84
2022/02/10 18:13:50;;;;;;;;;;;8.40;99.90;;;6.32;100.00;101002.53;5066709;28;20462;-84
2022/02/10 18:16:23;;;;;;;;;;;8.40;99.90;;;6.28;100.00;101008.34;5065098;28;19933;-85
2022/02/10 18:18:54;;;;;;;;;;;8.40;99.90;;;6.09;100.00;100993.84;5060032;28;19925;-84
2022/02/10 18:21:39;;;;;;;;;;;8.40;99.90;;;6.09;100.00;100984.91;5066851;28;19932;-85
2022/02/10 18:24:30;;;;;;;;;;;8.30;99.90;;;6.13;100.00;100992.59;5055457;28;20181;-84
2022/02/10 18:27:04;;;;;;;;;;;8.30;99.90;;;6.18;100.00;100992.16;5063188;28;19933;-84
2022/02/10 18:29:49;;;;;;;;;;;8.30;99.90;;;6.15;100.00;100989.72;5063405;28;19928;-85
2022/02/10 19:01:33;;;;;;;;;;;8.20;99.90;;;6.16;100.00;101003.09;5060878;28;19932;-84
2022/02/10 19:08:22;;;;;;;;;;;8.10;99.90;;;5.98;100.00;101034.56;5063911;28;20651;-84
2022/02/10 19:10:55;;;;;;;;;;;8.00;99.90;;;5.93;100.00;101039.50;5064770;28;19936;-85
2022/02/10 19:13:23;;;;;;;;;;;8.00;99.90;;;5.88;100.00;101038.06;5066543;28;19932;-85
2022/02/10 19:15:50;;;;;;;;;;;8.00;99.90;;;5.72;100.00;101037.75;5066343;28;19935;-86
2022/02/10 19:18:18;;;;;;;;;;;8.00;99.90;;;5.68;100.00;101052.53;5065351;28;19936;-85
2022/02/10 19:20:47;;;;;;;;;;;8.00;99.90;;;5.56;100.00;101048.25;5057838;28;20415;-86
2022/02/10 19:23:14;;;;;;;;;;;8.10;99.90;;;5.54;100.00;101058.31;5066209;28;19928;-85
2022/02/10 19:25:41;;;;;;;;;;;7.90;99.90;;;5.41;100.00;101064.84;5064788;28;19964;-85
2022/02/10 19:28:10;;;;;;;;;;;7.90;99.90;;;5.29;100.00;101057.81;5071977;28;19928;-86
2022/02/10 19:30:39;;;;;;;;;;;7.80;99.90;;;5.34;100.00;101065.53;5063376;28;19939;-86
2022/02/10 19:33:10;;;;;;;;;;;7.80;99.90;;;5.32;100.00;101057.56;5052409;28;20529;-86
2022/02/10 19:35:43;;;;;;;;;;;7.80;99.90;;;5.32;100.00;101062.13;5050545;28;19929;-86
2022/02/10 19:38:15;;;;;;;;;;;7.80;99.90;;;5.33;100.00;101062.00;5047846;28;19924;-87
2022/02/10 19:40:50;;;;;;;;;;;7.70;99.90;;;5.29;100.00;101071.31;5063634;28;19928;-86
2022/02/10 19:43:19;;;;;;;;;;;7.70;99.90;;;5.27;100.00;101067.91;5059158;28;19936;-87
2022/02/10 19:45:47;;;;;;;;;;;7.70;99.90;;;5.28;100.00;101073.19;5039152;28;19955;-86
2022/02/10 19:48:26;;;;;;;;;;;7.70;99.90;;;5.38;100.00;101078.59;5061691;28;20023;-87
2022/02/10 19:50:54;;;;;;;;;;;7.70;99.90;;;5.33;100.00;101078.19;5064221;28;19932;-86
2022/02/10 19:53:23;;;;;;;;;;;7.70;99.90;;;5.27;100.00;101078.69;5065235;28;19960;-87
2022/02/10 19:55:52;;;;;;;;;;;7.70;99.90;;;5.43;100.00;101075.50;5060102;28;19928;-87
2022/02/10 19:58:22;;;;;;;;;;;7.60;99.90;;;5.41;100.00;101075.63;5065446;28;19951;-86
2022/02/10 20:00:59;;;;;;;;;;;7.60;99.90;;;5.35;100.00;101078.91;5041762;28;20019;-88
2022/02/10 20:03:27;;;;;;;;;;;7.60;99.90;;;5.38;100.00;101077.75;5065743;28;19928;-87
2022/02/10 20:05:55;;;;;;;;;;;7.50;99.90;;;5.37;100.00;101076.03;5046244;28;20482;-87
2022/02/10 20:08:25;;;;;;;;;;;7.50;99.90;;;5.45;100.00;101073.53;5063539;28;19986;-87
2022/02/10 20:10:55;;;;;;;;;;;7.50;99.90;;;5.47;100.00;101075.09;5064730;28;19932;-86
2022/02/10 20:13:23;;;;;;;;;;;7.50;99.90;;;5.31;100.00;101074.72;5065822;28;19928;-87
2022/02/10 20:15:51;;;;;;;;;;;7.50;99.90;;;5.37;100.00;101071.50;5065377;28;19935;-87
2022/02/10 20:18:21;;;;;;;;;;;7.50;99.90;;;5.41;100.00;101070.25;5052586;28;19950;-88
2022/02/10 20:20:53;;;;;;;;;;;7.50;99.90;;;5.45;100.00;101073.53;5068854;28;19972;-88
2022/02/10 20:23:21;;;;;;;;;;;7.50;99.90;;;5.44;100.00;101082.59;5068853;28;20354;-88
2022/02/10 20:25:53;;;;;;;;;;;7.50;99.90;;;5.44;100.00;101075.34;5049726;28;19929;-88
2022/02/10 20:28:32;;;;;;;;;;;7.50;99.90;;;5.29;100.00;101080.28;5067748;28;19955;-87
2022/02/10 20:31:01;;;;;;;;;;;7.50;99.90;;;5.26;100.00;101088.66;5049910;28;19935;-88
2022/02/10 20:33:30;;;;;;;;;;;7.50;99.90;;;5.32;100.00;101092.66;5070588;28;20015;-88
2022/02/10 20:36:02;;;;;;;;;;;7.40;99.90;;;5.27;100.00;101092.19;5050216;28;19929;-88
2022/02/10 20:38:34;;;;;;;;;;;7.40;99.90;;;5.14;100.00;101108.63;5070776;28;20040;-87
2022/02/10 20:41:05;;;;;;;;;;;7.40;99.90;;;4.88;100.00;101100.97;5069919;28;19929;-87
2022/02/10 20:43:32;;;;;;;;;;;7.30;99.90;;;4.85;100.00;101103.06;5069107;28;19928;-87
2022/02/10 20:46:02;;;;;;;;;;;7.20;99.90;;;4.75;100.00;101100.31;5070858;28;19933;-91
2022/02/10 20:48:31;;;;;;;;;;;7.20;99.90;;;4.71;100.00;101104.25;5052968;28;19928;-89
2022/02/10 20:50:59;;;;;;;;;;;7.20;99.90;;;4.72;100.00;101105.13;5043652;28;19932;-91
2022/02/10 20:53:27;;;;;;;;;;;7.20;99.90;;;4.71;100.00;101098.88;5069342;28;19935;-90
2022/02/10 20:55:56;;;;;;;;;;;7.10;99.90;;;4.79;100.00;101100.91;5064653;28;20529;-90
2022/02/10 20:58:27;;;;;;;;;;;7.10;99.90;;;4.83;100.00;101091.56;5049856;28;19936;-89
2022/02/10 21:01:00;;;;;;;;;;;7.10;99.90;;;4.85;100.00;101084.19;5049506;28;19928;-90
2022/02/10 21:03:30;;;;;;;;;;;7.10;99.90;;;4.79;100.00;101088.28;5060041;28;19925;-89
2022/02/10 21:06:08;;;;;;;;;;;7.10;99.90;;;4.78;100.00;101086.56;5046205;28;19924;-90
2022/02/10 21:08:42;;;;;;;;;;;7.10;99.90;;;4.61;100.00;101093.44;5068131;28;19932;-90
2022/02/10 21:11:10;;;;;;;;;;;7.10;99.90;;;4.52;100.00;101096.91;5051601;28;20039;-90
2022/02/10 21:13:39;;;;;;;;;;;7.00;99.90;;;4.46;100.00;101092.88;5051764;28;19925;-90
2022/02/10 21:16:06;;;;;;;;;;;7.00;99.90;;;4.46;100.00;101094.75;5045836;28;19932;-90
2022/02/10 21:18:35;;;;;;;;;;;7.00;99.90;;;4.54;100.00;101105.72;5065563;28;20011;-91
2022/02/10 21:21:10;;;;;;;;;;;7.00;99.90;;;4.40;100.00;101103.31;5051109;28;19924;-92
2022/02/10 21:23:46;;;;;;;;;;;7.00;99.90;;;4.38;100.00;101098.09;5065127;28;20381;-88
2022/02/10 21:26:17;;;;;;;;;;;6.90;99.90;;;4.34;100.00;101112.81;5051280;28;19932;-90
2022/02/10 21:28:50;;;;;;;;;;;6.90;99.90;;;4.28;100.00;101103.41;5066039;28;19935;-92
2022/02/10 21:31:21;;;;;;;;;;;6.90;99.90;;;4.30;100.00;101112.22;5050455;28;20024;-91
2022/02/10 21:33:59;;;;;;;;;;;6.90;99.90;;;4.35;100.00;101116.34;5053591;28;20347;-92
2022/02/10 21:39:23;;;;;;;;;;;6.80;99.90;;;4.34;100.00;101120.00;5068788;28;20016;-89
2022/02/10 21:53:19;;;;;;;;;;;6.70;99.90;;;4.15;100.00;101121.56;5049323;28;19936;-90
2022/02/10 21:56:12;;;;;;;;;;;6.70;99.90;;;4.10;100.00;101124.63;5049131;28;19932;-89
2022/02/10 22:10:18;;;;;;;;;;;6.70;99.90;;;4.17;100.00;101124.13;5051010;28;19929;-90
2022/02/10 22:21:02;;;;;;;;;;;6.60;99.90;;;4.33;100.00;101097.59;5066924;28;19929;-88
2022/02/10 22:23:34;;;;;;;;;;;6.50;99.90;;;4.10;100.00;101099.53;5051732;28;19932;-88
2022/02/10 22:26:05;;;;;;;;;;;6.60;99.90;;;4.16;100.00;101096.34;5051550;28;19981;-89
2022/02/10 22:28:42;;;;;;;;;;;6.50;99.90;;;4.33;100.00;101099.47;5051079;28;19928;-90
2022/02/10 22:31:25;;;;;;;;;;;6.50;99.90;;;4.30;100.00;101098.72;5050137;28;19978;-90
2022/02/10 22:34:06;;;;;;;;;;;6.50;99.90;;;4.25;100.00;101098.25;5068675;28;19937;-89
2022/02/10 22:36:37;;;;;;;;;;;6.50;99.90;;;4.16;100.00;101104.41;5050292;28;19929;-89
2022/02/10 22:39:07;;;;;;;;;;;6.50;99.90;;;4.04;100.00;101097.38;5047099;28;20001;-89
2022/02/10 22:41:35;;;;;;;;;;;6.50;99.90;;;4.04;100.00;101098.22;5051144;28;20426;-89
2022/02/10 22:44:03;;;;;;;;;;;6.50;99.90;;;3.99;100.00;101099.59;5065449;28;20335;-89
2022/02/10 22:46:31;;;;;;;;;;;6.50;99.90;;;3.94;100.00;101112.56;5044679;28;19935;-89
2022/02/10 22:49:00;;;;;;;;;;;6.50;99.90;;;3.91;100.00;101109.16;5044152;28;19989;-88
2022/02/10 22:51:32;;;;;;;;;;;6.50;99.90;;;3.94;100.00;101107.19;5050877;28;19928;-88
2022/02/10 22:54:00;;;;;;;;;;;6.40;99.90;;;3.90;100.00;101098.50;5051238;28;19954;-89
2022/02/10 22:56:32;;;;;;;;;;;6.40;99.90;;;3.95;100.00;101108.91;5044304;28;20487;-88
2022/02/10 22:59:02;;;;;;;;;;;6.40;99.90;;;3.95;100.00;101109.75;5050820;28;20384;-89
2022/02/10 23:01:29;;;;;;;;;;;6.40;99.90;;;3.97;100.00;101131.19;5049802;28;20027;-89
2022/02/10 23:03:56;;;;;;;;;;;6.40;99.90;;;3.87;100.00;101121.16;5067265;28;20011;-88
2022/02/10 23:06:25;;;;;;;;;;;6.40;99.90;;;3.94;100.00;101118.84;5059223;28;19931;-89
2022/02/10 23:08:53;;;;;;;;;;;6.40;99.90;;;3.98;100.00;101119.41;5058331;28;19929;-90
2022/02/10 23:11:26;;;;;;;;;;;6.40;99.90;;;4.05;100.00;101108.00;5069230;28;19998;-88
2022/02/10 23:13:54;;;;;;;;;;;6.40;99.90;;;4.04;100.00;101113.53;5051346;28;19967;-88
2022/02/10 23:16:22;;;;;;;;;;;6.40;99.90;;;4.15;100.00;101107.22;5050714;28;19929;-89
2022/02/10 23:18:49;;;;;;;;;;;6.40;99.90;;;4.04;100.00;101106.31;5050549;28;19928;-89
2022/02/10 23:21:18;;;;;;;;;;;6.40;99.90;;;3.99;100.00;101110.34;5050682;28;19928;-88
2022/02/10 23:23:48;;;;;;;;;;;6.40;99.90;;;3.89;100.00;101102.19;5068887;28;19928;-89
2022/02/10 23:26:17;;;;;;;;;;;6.40;99.90;;;3.78;100.00;101108.44;5050664;28;19928;-88
2022/02/10 23:28:46;;;;;;;;;;;6.40;99.90;;;3.81;100.00;101113.59;5068692;28;19932;-89
2022/02/10 23:31:17;;;;;;;;;;;6.40;99.90;;;3.89;100.00;101111.13;5050541;28;19935;-88
2022/02/10 23:33:50;;;;;;;;;;;6.30;99.90;;;3.84;100.00;101115.16;5051030;28;19925;-89
2022/02/10 23:36:40;;;;;;;;;;;6.30;99.90;;;3.80;100.00;101111.88;5050465;28;19928;-88
2022/02/10 23:39:15;;;;;;;;;;;6.30;99.90;;;3.75;100.00;101114.09;5050309;28;20026;-88
2022/02/10 23:44:33;;;;;;;;;;;6.30;99.90;;;3.72;100.00;101123.25;5051047;28;19928;-89
2022/02/10 23:47:03;;;;;;;;;;;6.30;99.90;;;3.80;100.00;101111.03;5044793;28;19929;-89
2022/02/10 23:49:33;;;;;;;;;;;6.30;99.90;;;3.87;100.00;101112.22;5061544;22;19940;-87
2022/02/10 23:52:03;;;;;;;;;;;6.30;99.90;;;3.82;100.00;101114.44;5049295;28;19933;-87
2022/02/10 23:54:36;;;;;;;;;;;6.20;99.90;;;3.72;100.00;101108.97;5051576;28;20014;-87
2022/02/10 23:57:09;;;;;;;;;;;6.20;99.90;;;3.71;100.00;101107.22;5048281;28;19932;-87
2022/02/10 23:59:49;;;;;;;;;;;6.20;99.90;;;3.60;100.00;101112.63;5050309;28;19962;-87
